createdAt,value
2022-09-26T00:02:07.441Z,99668
2022-09-26T00:07:07.465Z,99662
2022-09-26T00:12:07.453Z,99657
2022-09-26T00:17:07.727Z,99655
2022-09-26T00:22:07.441Z,99649
2022-09-26T00:27:07.466Z,99642
2022-09-26T00:32:07.494Z,99650
2022-09-26T00:37:07.550Z,99634
2022-09-26T00:42:07.507Z,99624
2022-09-26T00:47:07.475Z,99625
2022-09-26T00:52:07.482Z,99621
2022-09-26T00:57:07.450Z,99608
2022-09-26T01:02:07.751Z,99608
2022-09-26T01:07:07.466Z,99593
2022-09-26T01:12:07.519Z,99598
2022-09-26T01:17:07.573Z,99588
2022-09-26T01:22:07.582Z,99584
2022-09-26T01:27:07.467Z,99586
2022-09-26T01:32:07.507Z,99595
2022-09-26T01:37:07.484Z,99579
2022-09-26T01:47:07.590Z,99573
2022-09-26T01:52:07.511Z,99574
2022-09-26T01:57:07.525Z,99563
2022-09-26T02:02:07.566Z,99540
2022-09-26T02:07:07.502Z,99543
2022-09-26T02:12:07.502Z,99543
2022-09-26T02:17:07.518Z,99538
2022-09-26T02:22:07.507Z,99532
2022-09-26T02:27:07.532Z,99537
2022-09-26T02:32:07.586Z,99527
2022-09-26T02:37:07.530Z,99518
2022-09-26T02:42:07.585Z,99524
2022-09-26T02:47:07.504Z,99524
2022-09-26T02:57:07.553Z,99531
2022-09-26T03:02:07.510Z,99536
2022-09-26T03:07:07.551Z,99518
2022-09-26T03:12:07.567Z,99518
2022-09-26T03:17:07.540Z,99523
2022-09-26T03:22:07.576Z,99522
2022-09-26T03:27:07.630Z,99508
2022-09-26T03:32:07.594Z,99492
2022-09-26T03:37:07.576Z,99498
2022-09-26T03:42:07.571Z,99499
2022-09-26T03:47:07.546Z,99482
2022-09-26T03:52:07.644Z,99475
2022-09-26T03:57:07.540Z,99468
2022-09-26T04:02:07.656Z,99461
2022-09-26T04:07:07.569Z,99463
2022-09-26T04:12:07.545Z,99457
2022-09-26T04:17:07.576Z,99449
2022-09-26T04:22:07.561Z,99451
2022-09-26T04:27:07.584Z,99456
2022-09-26T04:32:07.600Z,99435
2022-09-26T04:37:07.568Z,99431
2022-09-26T04:42:07.593Z,99437
2022-09-26T04:47:07.591Z,99442
2022-09-26T04:52:07.590Z,99429
2022-09-26T04:57:07.559Z,99423
2022-09-26T05:02:07.679Z,99437
2022-09-26T05:07:07.578Z,99440
2022-09-26T05:12:07.612Z,99433
2022-09-26T05:17:07.598Z,99449
2022-09-26T05:22:07.596Z,99443
2022-09-26T05:27:07.665Z,99429
2022-09-26T05:32:07.606Z,99426
2022-09-26T05:37:07.627Z,99422
2022-09-26T05:42:07.578Z,99417
2022-09-26T05:47:07.709Z,99411
2022-09-26T05:52:07.703Z,99435
2022-09-26T05:57:07.767Z,99444
2022-09-26T06:02:07.773Z,99446
2022-09-26T06:07:07.624Z,99440
2022-09-26T06:12:07.599Z,99435
2022-09-26T06:17:07.636Z,99426
2022-09-26T06:22:07.611Z,99406
2022-09-26T06:27:07.621Z,99404
2022-09-26T06:32:07.977Z,99402
2022-09-26T06:37:07.649Z,99412
2022-09-26T06:42:07.698Z,99413
2022-09-26T06:47:07.690Z,99413
2022-09-26T06:52:07.621Z,99426
2022-09-26T06:57:10.536Z,99421
2022-09-26T07:02:07.854Z,99415
2022-09-26T07:07:07.645Z,99415
2022-09-26T07:12:14.645Z,99414
2022-09-26T07:17:07.649Z,99411
2022-09-26T07:22:07.657Z,99420
2022-09-26T07:27:07.681Z,99417
2022-09-26T07:32:07.655Z,99411
2022-09-26T07:37:07.645Z,99417
2022-09-26T07:42:07.680Z,99439
2022-09-26T07:47:07.695Z,99441
2022-09-26T07:52:07.672Z,99444
2022-09-26T07:57:07.686Z,99450
2022-09-26T08:07:07.670Z,99459
2022-09-26T08:12:07.692Z,99453
2022-09-26T08:17:11.901Z,99446
2022-09-26T08:22:07.668Z,99446
2022-09-26T08:27:07.692Z,99456
2022-09-26T08:32:07.686Z,99456
2022-09-26T08:37:07.685Z,99452
2022-09-26T08:52:07.702Z,99452
2022-09-26T09:02:07.780Z,99457
2022-09-26T09:07:07.710Z,99463
2022-09-26T09:12:07.694Z,99469
2022-09-26T09:17:07.706Z,99468
2022-09-26T09:22:07.746Z,99465
2022-09-26T09:32:07.708Z,99459
2022-09-26T09:37:07.756Z,99452
2022-09-26T09:42:07.759Z,99447
2022-09-26T09:47:07.739Z,99446
2022-09-26T09:52:07.716Z,99439
2022-09-26T09:57:07.745Z,99445
2022-09-26T10:02:07.694Z,99437
2022-09-26T10:07:07.830Z,99443
2022-09-26T10:12:07.764Z,99440
2022-09-26T10:17:07.736Z,99439
2022-09-26T10:27:07.767Z,99440
2022-09-26T10:32:07.728Z,99429
2022-09-26T10:37:07.776Z,99428
2022-09-26T10:42:07.758Z,99419
2022-09-26T10:47:07.743Z,99420
2022-09-26T10:52:07.749Z,99418
2022-09-26T10:57:07.768Z,99409
2022-09-26T11:02:07.873Z,99421
2022-09-26T11:07:07.775Z,99424
2022-09-26T11:12:07.786Z,99422
2022-09-26T11:17:07.780Z,99417
2022-09-26T11:22:08.475Z,99445
2022-09-26T11:27:07.790Z,99446
2022-09-26T11:32:07.779Z,99442
2022-09-26T11:37:07.915Z,99442
2022-09-26T11:42:07.783Z,99435
2022-09-26T11:47:07.791Z,99431
2022-09-26T11:52:07.765Z,99426
2022-09-26T11:57:07.793Z,99426
2022-09-26T12:02:07.765Z,99431
2022-09-26T12:07:07.839Z,99431
2022-09-26T12:12:07.811Z,99426
2022-09-26T12:17:07.845Z,99421
2022-09-26T12:22:07.821Z,99403
2022-09-26T12:27:07.800Z,99404
2022-09-26T12:32:07.793Z,99397
2022-09-26T12:37:07.823Z,99387
2022-09-26T12:42:07.811Z,99368
2022-09-26T12:47:07.808Z,99362
2022-09-26T12:52:07.792Z,99372
2022-09-26T12:57:07.865Z,99359
2022-09-26T13:02:07.873Z,99353
2022-09-26T13:07:18.830Z,99352
2022-09-26T13:12:07.826Z,99346
2022-09-26T13:17:07.822Z,99348
2022-09-26T13:22:07.797Z,99356
2022-09-26T13:27:07.832Z,99356
2022-09-26T13:32:07.970Z,99374
2022-09-26T13:37:07.851Z,99361
2022-09-26T13:42:07.821Z,99353
2022-09-26T13:47:07.853Z,99354
2022-09-26T13:52:07.814Z,99354
2022-09-26T13:57:07.841Z,99355
2022-09-26T14:02:07.945Z,99352
2022-09-26T14:07:07.897Z,99356
2022-09-26T14:12:07.855Z,99342
2022-09-26T14:17:07.849Z,99345
2022-09-26T14:22:07.940Z,99339
2022-09-26T14:27:07.871Z,99334
2022-09-26T14:32:07.899Z,99329
2022-09-26T14:37:07.838Z,99320
2022-09-26T14:47:07.870Z,99316
2022-09-26T14:52:11.243Z,99302
2022-09-26T14:57:07.883Z,99302
2022-09-26T15:02:07.937Z,99302
2022-09-26T15:07:07.883Z,99309
2022-09-26T15:12:07.851Z,99306
2022-09-26T15:17:07.876Z,99301
2022-09-26T15:22:07.915Z,99282
2022-09-26T15:27:07.886Z,99288
2022-09-26T15:32:07.903Z,99289
2022-09-26T15:42:07.895Z,99278
2022-09-26T15:47:07.905Z,99273
2022-09-26T15:52:07.903Z,99273
2022-09-26T15:57:07.869Z,99282
2022-09-26T16:02:07.905Z,99271
2022-09-26T16:07:07.870Z,99274
2022-09-26T16:12:11.618Z,99280
2022-09-26T16:17:07.902Z,99286
2022-09-26T16:22:07.916Z,99289
2022-09-26T16:27:07.899Z,99282
2022-09-26T16:32:07.913Z,99274
2022-09-26T16:37:07.920Z,99277
2022-09-26T16:42:07.932Z,99271
2022-09-26T16:47:07.904Z,99272
2022-09-26T16:52:07.928Z,99271
2022-09-26T16:57:07.900Z,99271
2022-09-26T17:02:07.924Z,99271
2022-09-26T17:07:09.836Z,99277
2022-09-26T17:12:07.937Z,99271
2022-09-26T17:17:07.937Z,99278
2022-09-26T17:22:07.952Z,99277
2022-09-26T17:27:07.961Z,99277
2022-09-26T17:32:09.853Z,99277
2022-09-26T17:37:07.941Z,99286
2022-09-26T17:42:07.989Z,99282
2022-09-26T17:47:07.996Z,99280
2022-09-26T17:52:07.923Z,99277
2022-09-26T17:57:07.959Z,99279
2022-09-26T18:02:07.968Z,99277
2022-09-26T18:07:08.112Z,99281
2022-09-26T18:12:08.073Z,99272
2022-09-26T18:17:08.098Z,99274
2022-09-26T18:22:07.957Z,99278
2022-09-26T18:32:08.002Z,99283
2022-09-26T18:37:08.060Z,99275
2022-09-26T18:42:08.173Z,99279
2022-09-26T18:47:08.154Z,99274
2022-09-26T18:52:08.018Z,99265
2022-09-26T18:57:08.242Z,99267
2022-09-26T19:02:08.804Z,99267
2022-09-26T19:07:07.975Z,99271
2022-09-26T19:12:08.040Z,99275
2022-09-26T19:17:08.054Z,99282
2022-09-26T19:22:08.265Z,99284
2022-09-26T19:27:08.218Z,99284
2022-09-26T19:32:08.034Z,99293
2022-09-26T19:37:08.009Z,99305
2022-09-26T19:42:08.007Z,99305
2022-09-26T19:47:08.046Z,99312
2022-09-26T19:52:08.020Z,99289
2022-09-26T19:57:08.009Z,99287
2022-09-26T20:02:08.045Z,99284
2022-09-26T20:07:08.022Z,99285
2022-09-26T20:12:08.048Z,99292
2022-09-26T20:17:08.043Z,99285
2022-09-26T20:22:08.038Z,99279
2022-09-26T20:27:08.026Z,99289
2022-09-26T20:32:11.024Z,99282
2022-09-26T20:37:08.027Z,99284
2022-09-26T20:42:08.033Z,99279
2022-09-26T20:47:08.078Z,99279
2022-09-26T20:52:08.071Z,99284
2022-09-26T20:57:08.066Z,99274
2022-09-26T21:02:08.073Z,99274
2022-09-26T21:07:08.089Z,99276
2022-09-26T21:12:08.070Z,99263
2022-09-26T21:17:08.147Z,99263
2022-09-26T21:27:08.052Z,99257
2022-09-26T21:37:08.073Z,99238
2022-09-26T21:42:08.071Z,99238
2022-09-26T21:47:08.161Z,99233
2022-09-26T21:52:08.079Z,99233
2022-09-26T21:57:08.077Z,99240
2022-09-26T22:02:08.170Z,99240
2022-09-26T22:07:08.091Z,99230
2022-09-26T22:17:08.184Z,99231
2022-09-26T22:22:08.065Z,99222
2022-09-26T22:27:08.091Z,99222
2022-09-26T22:32:08.070Z,99211
2022-09-26T22:42:08.103Z,99189
2022-09-26T22:47:08.174Z,99176
2022-09-26T22:52:14.346Z,99176
2022-09-26T22:57:08.108Z,99157
2022-09-26T23:02:08.147Z,99156
2022-09-26T23:07:08.114Z,99158
2022-09-26T23:12:08.119Z,99146
2022-09-26T23:17:08.235Z,99149
2022-09-26T23:22:08.094Z,99143
2022-09-26T23:27:08.128Z,99133
2022-09-26T23:32:08.115Z,99130
2022-09-26T23:37:08.112Z,99125
2022-09-26T23:42:08.192Z,99120
2022-09-26T23:47:08.122Z,99115
2022-09-26T23:52:08.120Z,99111
2022-09-26T23:57:08.134Z,99111
